sensor_id;sensor_type;location;lat;lon;timestamp;temperature;humidity
57829;DHT22;43657;52.698;6.314;2022-12-18T00:01:39;-3.50;99.90
57829;DHT22;43657;52.698;6.314;2022-12-18T00:04:06;-3.50;99.90
57829;DHT22;43657;52.698;6.314;2022-12-18T00:06:34;-3.50;99.90
57829;DHT22;43657;52.698;6.314;2022-12-18T00:09:00;-3.50;99.90
57829;DHT22;43657;52.698;6.314;2022-12-18T00:11:29;-3.50;99.90
57829;DHT22;43657;52.698;6.314;2022-12-18T00:13:56;-3.50;99.90
57829;DHT22;43657;52.698;6.314;2022-12-18T00:16:24;-3.50;99.90
57829;DHT22;43657;52.698;6.314;2022-12-18T00:18:52;-3.50;99.90
57829;DHT22;43657;52.698;6.314;2022-12-18T00:21:19;-3.50;99.90
57829;DHT22;43657;52.698;6.314;2022-12-18T00:23:46;-3.60;99.90
57829;DHT22;43657;52.698;6.314;2022-12-18T00:26:15;-3.50;99.90
57829;DHT22;43657;52.698;6.314;2022-12-18T00:28:42;-3.50;99.90
57829;DHT22;43657;52.698;6.314;2022-12-18T00:31:10;-3.50;99.90
57829;DHT22;43657;52.698;6.314;2022-12-18T00:33:36;-3.60;99.90
57829;DHT22;43657;52.698;6.314;2022-12-18T00:36:09;-3.50;99.90
57829;DHT22;43657;52.698;6.314;2022-12-18T00:38:35;-3.60;99.90
57829;DHT22;43657;52.698;6.314;2022-12-18T00:41:10;-3.60;99.90
57829;DHT22;43657;52.698;6.314;2022-12-18T00:43:37;-3.60;99.90
57829;DHT22;43657;52.698;6.314;2022-12-18T00:46:04;-3.60;99.90
57829;DHT22;43657;52.698;6.314;2022-12-18T00:48:30;-3.70;99.90
57829;DHT22;43657;52.698;6.314;2022-12-18T00:50:55;-3.70;99.90
57829;DHT22;43657;52.698;6.314;2022-12-18T00:53:24;-3.70;99.90
57829;DHT22;43657;52.698;6.314;2022-12-18T00:55:50;-3.70;99.90
57829;DHT22;43657;52.698;6.314;2022-12-18T00:58:17;-3.80;99.90
57829;DHT22;43657;52.698;6.314;2022-12-18T01:00:43;-3.80;99.90
57829;DHT22;43657;52.698;6.314;2022-12-18T01:03:09;-3.80;99.90
57829;DHT22;43657;52.698;6.314;2022-12-18T01:05:40;-3.80;99.90
57829;DHT22;43657;52.698;6.314;2022-12-18T01:08:05;-3.90;99.90
57829;DHT22;43657;52.698;6.314;2022-12-18T01:10:31;-3.90;99.90
57829;DHT22;43657;52.698;6.314;2022-12-18T01:12:57;-3.90;99.90
57829;DHT22;43657;52.698;6.314;2022-12-18T01:15:22;-4.00;99.90
57829;DHT22;43657;52.698;6.314;2022-12-18T01:17:48;-4.00;99.90
57829;DHT22;43657;52.698;6.314;2022-12-18T01:20:13;-4.00;99.90
57829;DHT22;43657;52.698;6.314;2022-12-18T01:22:39;-4.10;99.90
57829;DHT22;43657;52.698;6.314;2022-12-18T01:25:05;-4.10;99.90
57829;DHT22;43657;52.698;6.314;2022-12-18T01:27:32;-4.10;99.90
57829;DHT22;43657;52.698;6.314;2022-12-18T01:29:58;-4.20;99.90
57829;DHT22;43657;52.698;6.314;2022-12-18T01:32:24;-4.20;99.90
57829;DHT22;43657;52.698;6.314;2022-12-18T01:34:49;-4.20;99.90
57829;DHT22;43657;52.698;6.314;2022-12-18T01:37:15;-4.30;99.90
57829;DHT22;43657;52.698;6.314;2022-12-18T01:39:41;-4.40;99.90
57829;DHT22;43657;52.698;6.314;2022-12-18T01:42:12;-4.40;99.90
57829;DHT22;43657;52.698;6.314;2022-12-18T01:47:32;-4.60;99.90
57829;DHT22;43657;52.698;6.314;2022-12-18T01:50:06;-4.60;99.90
57829;DHT22;43657;52.698;6.314;2022-12-18T01:52:32;-4.70;99.90
57829;DHT22;43657;52.698;6.314;2022-12-18T01:54:59;-4.70;99.90
57829;DHT22;43657;52.698;6.314;2022-12-18T01:57:26;-4.80;99.90
57829;DHT22;43657;52.698;6.314;2022-12-18T01:59:55;-4.80;99.90
57829;DHT22;43657;52.698;6.314;2022-12-18T02:02:22;-4.80;99.90
57829;DHT22;43657;52.698;6.314;2022-12-18T02:04:47;-4.90;99.90
57829;DHT22;43657;52.698;6.314;2022-12-18T02:07:35;-5.00;99.90
57829;DHT22;43657;52.698;6.314;2022-12-18T02:13:19;-5.00;99.90
57829;DHT22;43657;52.698;6.314;2022-12-18T02:18:37;-5.20;99.90
57829;DHT22;43657;52.698;6.314;2022-12-18T02:23:52;-5.20;99.90
57829;DHT22;43657;52.698;6.314;2022-12-18T02:26:35;-5.20;99.90
57829;DHT22;43657;52.698;6.314;2022-12-18T02:29:14;-5.20;99.90
57829;DHT22;43657;52.698;6.314;2022-12-18T02:31:49;-5.30;99.90
57829;DHT22;43657;52.698;6.314;2022-12-18T02:34:17;-5.30;99.90
57829;DHT22;43657;52.698;6.314;2022-12-18T02:36:44;-5.30;99.90
57829;DHT22;43657;52.698;6.314;2022-12-18T02:39:12;-5.40;99.90
57829;DHT22;43657;52.698;6.314;2022-12-18T02:41:39;-5.40;99.90
57829;DHT22;43657;52.698;6.314;2022-12-18T02:44:11;-5.40;99.90
57829;DHT22;43657;52.698;6.314;2022-12-18T02:52:50;-5.50;99.90
57829;DHT22;43657;52.698;6.314;2022-12-18T02:58:47;-5.60;99.90
57829;DHT22;43657;52.698;6.314;2022-12-18T03:01:24;-5.60;99.90
57829;DHT22;43657;52.698;6.314;2022-12-18T03:04:05;-5.60;99.90
57829;DHT22;43657;52.698;6.314;2022-12-18T03:06:42;-5.70;99.90
57829;DHT22;43657;52.698;6.314;2022-12-18T03:09:19;-5.60;99.90
57829;DHT22;43657;52.698;6.314;2022-12-18T03:11:55;-5.70;99.90
57829;DHT22;43657;52.698;6.314;2022-12-18T03:14:42;-5.80;99.90
57829;DHT22;43657;52.698;6.314;2022-12-18T03:17:10;-5.80;99.90
57829;DHT22;43657;52.698;6.314;2022-12-18T03:19:39;-5.80;99.90
57829;DHT22;43657;52.698;6.314;2022-12-18T03:22:07;-5.80;99.90
57829;DHT22;43657;52.698;6.314;2022-12-18T03:24:35;-5.80;99.90
57829;DHT22;43657;52.698;6.314;2022-12-18T03:27:07;-5.80;99.90
57829;DHT22;43657;52.698;6.314;2022-12-18T03:29:46;-5.80;99.90
57829;DHT22;43657;52.698;6.314;2022-12-18T03:32:41;-5.90;99.90
57829;DHT22;43657;52.698;6.314;2022-12-18T03:35:10;-5.90;99.90
57829;DHT22;43657;52.698;6.314;2022-12-18T03:37:37;-6.00;99.90
57829;DHT22;43657;52.698;6.314;2022-12-18T03:40:04;-6.00;99.90
57829;DHT22;43657;52.698;6.314;2022-12-18T03:42:49;-6.00;99.90
57829;DHT22;43657;52.698;6.314;2022-12-18T03:45:34;-6.00;99.90
57829;DHT22;43657;52.698;6.314;2022-12-18T03:48:16;-6.00;99.90
57829;DHT22;43657;52.698;6.314;2022-12-18T03:55:53;-6.10;99.90
57829;DHT22;43657;52.698;6.314;2022-12-18T03:58:25;-6.10;99.90
57829;DHT22;43657;52.698;6.314;2022-12-18T04:00:55;-6.10;99.90
57829;DHT22;43657;52.698;6.314;2022-12-18T04:03:23;-6.20;99.90
57829;DHT22;43657;52.698;6.314;2022-12-18T04:05:51;-6.20;99.90
57829;DHT22;43657;52.698;6.314;2022-12-18T04:08:18;-6.30;99.90
57829;DHT22;43657;52.698;6.314;2022-12-18T04:10:45;-6.30;99.90
57829;DHT22;43657;52.698;6.314;2022-12-18T04:13:10;-6.20;99.90
57829;DHT22;43657;52.698;6.314;2022-12-18T04:15:37;-6.30;99.90
57829;DHT22;43657;52.698;6.314;2022-12-18T04:18:03;-6.30;99.90
57829;DHT22;43657;52.698;6.314;2022-12-18T04:20:29;-6.30;99.90
57829;DHT22;43657;52.698;6.314;2022-12-18T04:22:55;-6.30;99.90
57829;DHT22;43657;52.698;6.314;2022-12-18T04:25:21;-6.30;99.90
57829;DHT22;43657;52.698;6.314;2022-12-18T04:27:46;-6.40;99.90
57829;DHT22;43657;52.698;6.314;2022-12-18T04:30:12;-6.40;99.90
57829;DHT22;43657;52.698;6.314;2022-12-18T04:32:38;-6.40;99.90
57829;DHT22;43657;52.698;6.314;2022-12-18T04:35:04;-6.30;99.90
57829;DHT22;43657;52.698;6.314;2022-12-18T04:37:32;-6.30;99.90
57829;DHT22;43657;52.698;6.314;2022-12-18T04:39:57;-6.30;99.90
57829;DHT22;43657;52.698;6.314;2022-12-18T04:42:23;-6.30;99.90
57829;DHT22;43657;52.698;6.314;2022-12-18T04:44:49;-6.40;99.90
57829;DHT22;43657;52.698;6.314;2022-12-18T04:47:15;-6.40;99.90
57829;DHT22;43657;52.698;6.314;2022-12-18T04:49:41;-6.40;99.90
57829;DHT22;43657;52.698;6.314;2022-12-18T04:52:06;-6.40;99.90
57829;DHT22;43657;52.698;6.314;2022-12-18T04:54:32;-6.40;99.90
57829;DHT22;43657;52.698;6.314;2022-12-18T04:56:58;-6.40;99.90
57829;DHT22;43657;52.698;6.314;2022-12-18T04:59:24;-6.40;99.90
57829;DHT22;43657;52.698;6.314;2022-12-18T05:01:49;-6.50;99.90
57829;DHT22;43657;52.698;6.314;2022-12-18T05:04:15;-6.50;99.90
57829;DHT22;43657;52.698;6.314;2022-12-18T05:06:41;-6.40;99.90
57829;DHT22;43657;52.698;6.314;2022-12-18T05:09:07;-6.50;99.90
57829;DHT22;43657;52.698;6.314;2022-12-18T05:11:33;-6.60;99.90
57829;DHT22;43657;52.698;6.314;2022-12-18T05:13:59;-6.60;99.90
57829;DHT22;43657;52.698;6.314;2022-12-18T05:16:25;-6.60;99.90
57829;DHT22;43657;52.698;6.314;2022-12-18T05:18:50;-6.60;99.90
57829;DHT22;43657;52.698;6.314;2022-12-18T05:21:16;-6.60;99.90
57829;DHT22;43657;52.698;6.314;2022-12-18T05:23:42;-6.70;99.90
57829;DHT22;43657;52.698;6.314;2022-12-18T05:26:08;-6.70;99.90
57829;DHT22;43657;52.698;6.314;2022-12-18T05:28:36;-6.80;99.90
57829;DHT22;43657;52.698;6.314;2022-12-18T05:31:03;-6.80;99.90
57829;DHT22;43657;52.698;6.314;2022-12-18T05:33:31;-6.80;99.90
57829;DHT22;43657;52.698;6.314;2022-12-18T05:36:00;-6.80;99.90
57829;DHT22;43657;52.698;6.314;2022-12-18T05:38:28;-6.80;99.90
57829;DHT22;43657;52.698;6.314;2022-12-18T05:40:54;-6.90;99.90
57829;DHT22;43657;52.698;6.314;2022-12-18T05:43:21;-6.90;99.90
57829;DHT22;43657;52.698;6.314;2022-12-18T05:45:47;-6.90;99.90
57829;DHT22;43657;52.698;6.314;2022-12-18T05:48:14;-6.90;99.90
57829;DHT22;43657;52.698;6.314;2022-12-18T05:50:42;-6.90;99.90
57829;DHT22;43657;52.698;6.314;2022-12-18T05:53:08;-6.90;99.90
57829;DHT22;43657;52.698;6.314;2022-12-18T05:55:35;-7.00;99.90
57829;DHT22;43657;52.698;6.314;2022-12-18T05:58:02;-6.90;99.90
57829;DHT22;43657;52.698;6.314;2022-12-18T06:00:28;-7.00;99.90
57829;DHT22;43657;52.698;6.314;2022-12-18T06:02:54;-7.10;99.90
57829;DHT22;43657;52.698;6.314;2022-12-18T06:05:19;-7.10;99.90
57829;DHT22;43657;52.698;6.314;2022-12-18T06:07:47;-7.10;99.90
57829;DHT22;43657;52.698;6.314;2022-12-18T06:10:13;-7.00;99.90
57829;DHT22;43657;52.698;6.314;2022-12-18T06:12:39;-7.10;99.90
57829;DHT22;43657;52.698;6.314;2022-12-18T06:15:05;-7.00;99.90
57829;DHT22;43657;52.698;6.314;2022-12-18T06:17:32;-7.10;99.90
57829;DHT22;43657;52.698;6.314;2022-12-18T06:19:58;-7.00;99.90
57829;DHT22;43657;52.698;6.314;2022-12-18T06:22:24;-7.10;99.90
57829;DHT22;43657;52.698;6.314;2022-12-18T06:24:49;-7.20;99.90
57829;DHT22;43657;52.698;6.314;2022-12-18T06:27:15;-7.20;99.90
57829;DHT22;43657;52.698;6.314;2022-12-18T06:29:42;-7.20;99.90
57829;DHT22;43657;52.698;6.314;2022-12-18T06:32:08;-7.30;99.90
57829;DHT22;43657;52.698;6.314;2022-12-18T06:34:34;-7.30;99.90
57829;DHT22;43657;52.698;6.314;2022-12-18T06:37:00;-7.30;99.90
57829;DHT22;43657;52.698;6.314;2022-12-18T06:39:29;-7.30;99.90
57829;DHT22;43657;52.698;6.314;2022-12-18T06:41:55;-7.30;99.90
57829;DHT22;43657;52.698;6.314;2022-12-18T06:44:21;-7.30;99.90
57829;DHT22;43657;52.698;6.314;2022-12-18T06:47:11;-7.30;99.90
57829;DHT22;43657;52.698;6.314;2022-12-18T06:49:38;-7.30;99.90
57829;DHT22;43657;52.698;6.314;2022-12-18T06:52:04;-7.30;99.90
57829;DHT22;43657;52.698;6.314;2022-12-18T06:54:33;-7.30;99.90
57829;DHT22;43657;52.698;6.314;2022-12-18T06:57:02;-7.20;99.90
57829;DHT22;43657;52.698;6.314;2022-12-18T06:59:27;-7.20;99.90
57829;DHT22;43657;52.698;6.314;2022-12-18T07:01:55;-7.20;99.90
57829;DHT22;43657;52.698;6.314;2022-12-18T07:04:28;-7.30;99.90
57829;DHT22;43657;52.698;6.314;2022-12-18T07:06:56;-7.20;99.90
57829;DHT22;43657;52.698;6.314;2022-12-18T07:09:25;-7.20;99.90
57829;DHT22;43657;52.698;6.314;2022-12-18T07:11:51;-7.20;99.90
57829;DHT22;43657;52.698;6.314;2022-12-18T07:14:17;-7.20;99.90
57829;DHT22;43657;52.698;6.314;2022-12-18T07:16:45;-7.20;99.90
57829;DHT22;43657;52.698;6.314;2022-12-18T07:19:26;-7.20;99.90
57829;DHT22;43657;52.698;6.314;2022-12-18T07:21:53;-7.00;99.90
57829;DHT22;43657;52.698;6.314;2022-12-18T07:24:34;-7.10;99.90
57829;DHT22;43657;52.698;6.314;2022-12-18T07:30:07;-7.00;99.90
57829;DHT22;43657;52.698;6.314;2022-12-18T07:32:35;-7.00;99.90
57829;DHT22;43657;52.698;6.314;2022-12-18T07:35:01;-7.00;99.90
57829;DHT22;43657;52.698;6.314;2022-12-18T07:37:29;-6.90;99.90
57829;DHT22;43657;52.698;6.314;2022-12-18T07:39:55;-6.90;99.90
57829;DHT22;43657;52.698;6.314;2022-12-18T07:42:23;-6.80;99.90
57829;DHT22;43657;52.698;6.314;2022-12-18T07:45:02;-6.90;99.90
57829;DHT22;43657;52.698;6.314;2022-12-18T07:47:28;-6.80;99.90
57829;DHT22;43657;52.698;6.314;2022-12-18T07:49:54;-6.80;99.90
57829;DHT22;43657;52.698;6.314;2022-12-18T07:52:21;-6.70;99.90
57829;DHT22;43657;52.698;6.314;2022-12-18T07:54:49;-6.70;99.90
57829;DHT22;43657;52.698;6.314;2022-12-18T07:57:17;-6.70;99.90
57829;DHT22;43657;52.698;6.314;2022-12-18T08:02:20;-6.60;99.90
57829;DHT22;43657;52.698;6.314;2022-12-18T08:04:48;-6.60;99.90
57829;DHT22;43657;52.698;6.314;2022-12-18T08:07:17;-6.50;99.90
57829;DHT22;43657;52.698;6.314;2022-12-18T08:09:42;-6.50;99.90
57829;DHT22;43657;52.698;6.314;2022-12-18T08:12:08;-6.50;99.90
57829;DHT22;43657;52.698;6.314;2022-12-18T08:14:34;-6.40;99.90
57829;DHT22;43657;52.698;6.314;2022-12-18T08:16:59;-6.40;99.90
57829;DHT22;43657;52.698;6.314;2022-12-18T08:19:47;-6.40;99.90
57829;DHT22;43657;52.698;6.314;2022-12-18T08:22:16;-6.30;99.90
57829;DHT22;43657;52.698;6.314;2022-12-18T08:24:44;-6.30;99.90
57829;DHT22;43657;52.698;6.314;2022-12-18T08:27:13;-6.30;99.90
57829;DHT22;43657;52.698;6.314;2022-12-18T08:29:41;-6.20;99.90
57829;DHT22;43657;52.698;6.314;2022-12-18T08:32:30;-6.20;99.90
57829;DHT22;43657;52.698;6.314;2022-12-18T08:35:27;-6.20;99.90
57829;DHT22;43657;52.698;6.314;2022-12-18T08:38:27;-6.10;99.90
57829;DHT22;43657;52.698;6.314;2022-12-18T08:42:21;-6.00;99.90
57829;DHT22;43657;52.698;6.314;2022-12-18T08:45:26;-5.90;99.90
57829;DHT22;43657;52.698;6.314;2022-12-18T08:48:13;-5.90;99.90
57829;DHT22;43657;52.698;6.314;2022-12-18T08:51:41;-5.80;99.90
57829;DHT22;43657;52.698;6.314;2022-12-18T08:54:19;-5.70;99.90
57829;DHT22;43657;52.698;6.314;2022-12-18T08:56:45;-5.60;99.90
57829;DHT22;43657;52.698;6.314;2022-12-18T08:59:20;-5.50;99.90
57829;DHT22;43657;52.698;6.314;2022-12-18T09:04:21;-5.30;99.90
57829;DHT22;43657;52.698;6.314;2022-12-18T09:06:46;-5.20;99.90
57829;DHT22;43657;52.698;6.314;2022-12-18T09:09:12;-5.10;99.90
57829;DHT22;43657;52.698;6.314;2022-12-18T09:13:49;-5.00;99.90
57829;DHT22;43657;52.698;6.314;2022-12-18T09:16:15;-4.90;99.90
57829;DHT22;43657;52.698;6.314;2022-12-18T09:18:41;-4.70;99.90
57829;DHT22;43657;52.698;6.314;2022-12-18T09:21:11;-4.70;99.90
57829;DHT22;43657;52.698;6.314;2022-12-18T09:23:38;-4.60;99.90
57829;DHT22;43657;52.698;6.314;2022-12-18T09:26:03;-4.50;99.90
57829;DHT22;43657;52.698;6.314;2022-12-18T09:28:29;-4.40;99.90
57829;DHT22;43657;52.698;6.314;2022-12-18T09:30:55;-4.30;99.90
57829;DHT22;43657;52.698;6.314;2022-12-18T09:33:20;-4.20;99.90
57829;DHT22;43657;52.698;6.314;2022-12-18T09:35:46;-4.10;99.90
57829;DHT22;43657;52.698;6.314;2022-12-18T09:38:23;-4.10;99.90
57829;DHT22;43657;52.698;6.314;2022-12-18T09:40:51;-4.00;99.90
57829;DHT22;43657;52.698;6.314;2022-12-18T09:43:41;-3.90;99.90
57829;DHT22;43657;52.698;6.314;2022-12-18T09:46:14;-3.80;99.90
57829;DHT22;43657;52.698;6.314;2022-12-18T09:48:44;-3.70;99.90
57829;DHT22;43657;52.698;6.314;2022-12-18T09:51:50;-3.60;99.90
57829;DHT22;43657;52.698;6.314;2022-12-18T09:54:50;-3.60;99.90
57829;DHT22;43657;52.698;6.314;2022-12-18T09:57:46;-3.50;99.90
57829;DHT22;43657;52.698;6.314;2022-12-18T10:02:38;-3.50;99.90
57829;DHT22;43657;52.698;6.314;2022-12-18T10:05:16;-3.40;99.90
57829;DHT22;43657;52.698;6.314;2022-12-18T10:07:55;-3.30;99.90
57829;DHT22;43657;52.698;6.314;2022-12-18T10:10:45;-3.30;99.90
57829;DHT22;43657;52.698;6.314;2022-12-18T10:26:09;-2.90;99.90
57829;DHT22;43657;52.698;6.314;2022-12-18T10:28:50;-2.80;99.90
57829;DHT22;43657;52.698;6.314;2022-12-18T10:31:22;-2.80;99.90
57829;DHT22;43657;52.698;6.314;2022-12-18T10:33:48;-2.70;99.90
57829;DHT22;43657;52.698;6.314;2022-12-18T10:36:15;-2.60;99.90
57829;DHT22;43657;52.698;6.314;2022-12-18T10:38:40;-2.60;99.90
57829;DHT22;43657;52.698;6.314;2022-12-18T10:44:21;-2.50;99.90
57829;DHT22;43657;52.698;6.314;2022-12-18T10:46:54;-2.40;99.90
57829;DHT22;43657;52.698;6.314;2022-12-18T10:49:27;-2.40;99.90
57829;DHT22;43657;52.698;6.314;2022-12-18T10:52:20;-2.30;99.90
57829;DHT22;43657;52.698;6.314;2022-12-18T10:54:59;-2.20;99.90
57829;DHT22;43657;52.698;6.314;2022-12-18T10:57:40;-2.20;99.90
57829;DHT22;43657;52.698;6.314;2022-12-18T11:00:28;-2.10;99.90
57829;DHT22;43657;52.698;6.314;2022-12-18T11:02:55;-2.10;99.90
57829;DHT22;43657;52.698;6.314;2022-12-18T11:08:27;-2.10;99.90
57829;DHT22;43657;52.698;6.314;2022-12-18T11:10:53;-1.90;99.90
57829;DHT22;43657;52.698;6.314;2022-12-18T11:13:21;-1.90;99.90
57829;DHT22;43657;52.698;6.314;2022-12-18T11:15:47;-1.80;99.90
57829;DHT22;43657;52.698;6.314;2022-12-18T11:18:27;-1.80;99.90
57829;DHT22;43657;52.698;6.314;2022-12-18T11:20:59;-1.80;99.90
57829;DHT22;43657;52.698;6.314;2022-12-18T11:23:26;-1.70;99.90
57829;DHT22;43657;52.698;6.314;2022-12-18T11:25:55;-1.70;99.90
57829;DHT22;43657;52.698;6.314;2022-12-18T11:28:39;-1.60;99.90
57829;DHT22;43657;52.698;6.314;2022-12-18T11:33:42;-1.60;99.90
57829;DHT22;43657;52.698;6.314;2022-12-18T11:36:09;-1.50;99.90
57829;DHT22;43657;52.698;6.314;2022-12-18T11:38:37;-1.50;99.90
57829;DHT22;43657;52.698;6.314;2022-12-18T11:41:27;-1.50;99.90
57829;DHT22;43657;52.698;6.314;2022-12-18T11:44:31;-1.40;99.90
57829;DHT22;43657;52.698;6.314;2022-12-18T11:47:05;-1.40;99.90
57829;DHT22;43657;52.698;6.314;2022-12-18T11:49:35;-1.30;99.90
57829;DHT22;43657;52.698;6.314;2022-12-18T11:52:21;-1.30;99.90
57829;DHT22;43657;52.698;6.314;2022-12-18T11:58:02;-1.20;99.90
57829;DHT22;43657;52.698;6.314;2022-12-18T12:00:31;-1.20;99.90
57829;DHT22;43657;52.698;6.314;2022-12-18T12:03:07;-1.20;99.90
57829;DHT22;43657;52.698;6.314;2022-12-18T12:08:27;-1.20;99.90
57829;DHT22;43657;52.698;6.314;2022-12-18T12:20:28;-1.10;99.90
57829;DHT22;43657;52.698;6.314;2022-12-18T12:23:05;-1.10;99.90
57829;DHT22;43657;52.698;6.314;2022-12-18T12:25:52;-1.10;99.90
57829;DHT22;43657;52.698;6.314;2022-12-18T12:31:04;-1.00;99.90
57829;DHT22;43657;52.698;6.314;2022-12-18T12:39:22;-0.90;99.90
57829;DHT22;43657;52.698;6.314;2022-12-18T12:41:48;-0.90;99.90
57829;DHT22;43657;52.698;6.314;2022-12-18T12:44:51;-0.90;99.90
57829;DHT22;43657;52.698;6.314;2022-12-18T12:47:35;-0.80;99.90
57829;DHT22;43657;52.698;6.314;2022-12-18T12:50:05;-0.80;99.90
57829;DHT22;43657;52.698;6.314;2022-12-18T12:52:49;-0.80;99.90
57829;DHT22;43657;52.698;6.314;2022-12-18T12:55:20;-0.70;99.90
57829;DHT22;43657;52.698;6.314;2022-12-18T12:57:57;-0.70;99.90
57829;DHT22;43657;52.698;6.314;2022-12-18T13:00:26;-0.70;99.90
57829;DHT22;43657;52.698;6.314;2022-12-18T13:08:11;-0.60;99.90
57829;DHT22;43657;52.698;6.314;2022-12-18T13:10:42;-0.60;99.90
57829;DHT22;43657;52.698;6.314;2022-12-18T13:13:17;-0.60;99.90
57829;DHT22;43657;52.698;6.314;2022-12-18T13:16:07;-0.60;99.90
57829;DHT22;43657;52.698;6.314;2022-12-18T13:18:34;-0.60;99.90
57829;DHT22;43657;52.698;6.314;2022-12-18T13:38:32;-0.50;99.90
57829;DHT22;43657;52.698;6.314;2022-12-18T13:41:25;-0.50;99.90
57829;DHT22;43657;52.698;6.314;2022-12-18T13:44:24;-0.60;99.90
57829;DHT22;43657;52.698;6.314;2022-12-18T13:46:54;-0.60;99.90
57829;DHT22;43657;52.698;6.314;2022-12-18T13:49:40;-0.60;99.90
57829;DHT22;43657;52.698;6.314;2022-12-18T13:52:19;-0.60;99.90
57829;DHT22;43657;52.698;6.314;2022-12-18T13:54:52;-0.60;99.90
57829;DHT22;43657;52.698;6.314;2022-12-18T13:57:36;-0.60;99.90
57829;DHT22;43657;52.698;6.314;2022-12-18T14:02:32;-0.60;99.90
57829;DHT22;43657;52.698;6.314;2022-12-18T14:05:05;-0.60;99.90
57829;DHT22;43657;52.698;6.314;2022-12-18T14:07:31;-0.70;99.90
57829;DHT22;43657;52.698;6.314;2022-12-18T14:10:01;-0.70;99.90
57829;DHT22;43657;52.698;6.314;2022-12-18T14:12:30;-0.70;99.90
57829;DHT22;43657;52.698;6.314;2022-12-18T14:18:03;-0.70;99.90
57829;DHT22;43657;52.698;6.314;2022-12-18T14:21:01;-0.70;99.90
57829;DHT22;43657;52.698;6.314;2022-12-18T14:23:37;-0.70;99.90
57829;DHT22;43657;52.698;6.314;2022-12-18T14:26:27;-0.70;99.90
57829;DHT22;43657;52.698;6.314;2022-12-18T14:28:58;-0.80;99.90
57829;DHT22;43657;52.698;6.314;2022-12-18T14:31:38;-0.80;99.90
57829;DHT22;43657;52.698;6.314;2022-12-18T14:34:17;-0.80;99.90
57829;DHT22;43657;52.698;6.314;2022-12-18T14:36:53;-0.70;99.90
57829;DHT22;43657;52.698;6.314;2022-12-18T14:39:21;-0.80;99.90
57829;DHT22;43657;52.698;6.314;2022-12-18T14:41:56;-0.90;99.90
57829;DHT22;43657;52.698;6.314;2022-12-18T14:44:42;-0.80;99.90
57829;DHT22;43657;52.698;6.314;2022-12-18T14:47:14;-0.80;99.90
57829;DHT22;43657;52.698;6.314;2022-12-18T14:49:44;-0.80;99.90
57829;DHT22;43657;52.698;6.314;2022-12-18T14:52:29;-0.90;99.90
57829;DHT22;43657;52.698;6.314;2022-12-18T14:54:57;-0.90;99.90
57829;DHT22;43657;52.698;6.314;2022-12-18T14:57:28;-0.90;99.90
57829;DHT22;43657;52.698;6.314;2022-12-18T15:00:03;-0.90;99.90
57829;DHT22;43657;52.698;6.314;2022-12-18T15:02:29;-0.90;99.90
57829;DHT22;43657;52.698;6.314;2022-12-18T15:07:16;-0.90;99.90
57829;DHT22;43657;52.698;6.314;2022-12-18T15:10:18;-1.00;99.90
57829;DHT22;43657;52.698;6.314;2022-12-18T15:13:27;-1.00;99.90
57829;DHT22;43657;52.698;6.314;2022-12-18T15:26:02;-1.00;99.90
57829;DHT22;43657;52.698;6.314;2022-12-18T15:28:36;-1.00;99.90
57829;DHT22;43657;52.698;6.314;2022-12-18T15:33:39;-1.10;99.90
57829;DHT22;43657;52.698;6.314;2022-12-18T15:36:09;-1.00;99.90
57829;DHT22;43657;52.698;6.314;2022-12-18T15:38:35;-1.00;99.90
57829;DHT22;43657;52.698;6.314;2022-12-18T15:41:01;-1.00;99.90
57829;DHT22;43657;52.698;6.314;2022-12-18T15:43:27;-1.00;99.90
57829;DHT22;43657;52.698;6.314;2022-12-18T15:46:12;-1.00;99.90
57829;DHT22;43657;52.698;6.314;2022-12-18T15:48:44;-1.00;99.90
57829;DHT22;43657;52.698;6.314;2022-12-18T15:54:03;-1.00;99.90
57829;DHT22;43657;52.698;6.314;2022-12-18T15:56:30;-1.00;99.90
57829;DHT22;43657;52.698;6.314;2022-12-18T15:59:19;-1.00;99.90
57829;DHT22;43657;52.698;6.314;2022-12-18T16:01:50;-1.00;99.90
57829;DHT22;43657;52.698;6.314;2022-12-18T16:04:18;-0.90;99.90
57829;DHT22;43657;52.698;6.314;2022-12-18T16:06:48;-0.90;99.90
57829;DHT22;43657;52.698;6.314;2022-12-18T16:09:13;-0.90;99.90
57829;DHT22;43657;52.698;6.314;2022-12-18T16:11:42;-0.90;99.90
57829;DHT22;43657;52.698;6.314;2022-12-18T16:14:21;-0.90;99.90
57829;DHT22;43657;52.698;6.314;2022-12-18T16:19:28;-0.90;99.90
57829;DHT22;43657;52.698;6.314;2022-12-18T16:21:56;-0.90;99.90
57829;DHT22;43657;52.698;6.314;2022-12-18T16:24:24;-0.90;99.90
57829;DHT22;43657;52.698;6.314;2022-12-18T16:26:51;-0.90;99.90
57829;DHT22;43657;52.698;6.314;2022-12-18T16:29:18;-0.90;99.90
57829;DHT22;43657;52.698;6.314;2022-12-18T16:31:46;-0.90;99.90
57829;DHT22;43657;52.698;6.314;2022-12-18T16:34:27;-0.90;99.90
57829;DHT22;43657;52.698;6.314;2022-12-18T16:37:04;-0.80;99.90
57829;DHT22;43657;52.698;6.314;2022-12-18T16:39:47;-0.90;99.90
57829;DHT22;43657;52.698;6.314;2022-12-18T16:44:48;-0.90;99.90
57829;DHT22;43657;52.698;6.314;2022-12-18T16:47:17;-0.90;99.90
57829;DHT22;43657;52.698;6.314;2022-12-18T16:49:44;-0.80;99.90
57829;DHT22;43657;52.698;6.314;2022-12-18T16:52:11;-0.90;99.90
57829;DHT22;43657;52.698;6.314;2022-12-18T16:54:36;-0.90;99.90
57829;DHT22;43657;52.698;6.314;2022-12-18T16:57:03;-0.90;99.90
57829;DHT22;43657;52.698;6.314;2022-12-18T16:59:32;-0.90;99.90
57829;DHT22;43657;52.698;6.314;2022-12-18T17:02:01;-0.90;99.90
57829;DHT22;43657;52.698;6.314;2022-12-18T17:04:44;-0.80;99.90
57829;DHT22;43657;52.698;6.314;2022-12-18T17:07:14;-0.80;99.90
57829;DHT22;43657;52.698;6.314;2022-12-18T17:09:42;-0.80;99.90
57829;DHT22;43657;52.698;6.314;2022-12-18T17:12:17;-0.80;99.90
57829;DHT22;43657;52.698;6.314;2022-12-18T17:14:45;-0.80;99.90
57829;DHT22;43657;52.698;6.314;2022-12-18T17:17:14;-0.80;99.90
57829;DHT22;43657;52.698;6.314;2022-12-18T17:19:42;-0.70;99.90
57829;DHT22;43657;52.698;6.314;2022-12-18T17:22:15;-0.70;99.90
57829;DHT22;43657;52.698;6.314;2022-12-18T17:24:41;-0.70;99.90
57829;DHT22;43657;52.698;6.314;2022-12-18T17:27:10;-0.70;99.90
57829;DHT22;43657;52.698;6.314;2022-12-18T17:29:38;-0.70;99.90
57829;DHT22;43657;52.698;6.314;2022-12-18T17:32:04;-0.70;99.90
57829;DHT22;43657;52.698;6.314;2022-12-18T17:34:30;-0.70;99.90
57829;DHT22;43657;52.698;6.314;2022-12-18T17:36:58;-0.70;99.90
57829;DHT22;43657;52.698;6.314;2022-12-18T17:39:24;-0.70;99.90
57829;DHT22;43657;52.698;6.314;2022-12-18T17:41:57;-0.70;99.90
57829;DHT22;43657;52.698;6.314;2022-12-18T17:44:24;-0.70;99.90
57829;DHT22;43657;52.698;6.314;2022-12-18T17:46:52;-0.70;99.90
57829;DHT22;43657;52.698;6.314;2022-12-18T17:49:18;-0.60;99.90
57829;DHT22;43657;52.698;6.314;2022-12-18T17:51:45;-0.60;99.90
57829;DHT22;43657;52.698;6.314;2022-12-18T17:54:11;-0.60;99.90
57829;DHT22;43657;52.698;6.314;2022-12-18T17:56:38;-0.60;99.90
57829;DHT22;43657;52.698;6.314;2022-12-18T17:59:04;-0.60;99.90
57829;DHT22;43657;52.698;6.314;2022-12-18T18:04:03;-0.60;99.90
57829;DHT22;43657;52.698;6.314;2022-12-18T18:06:28;-0.60;99.90
57829;DHT22;43657;52.698;6.314;2022-12-18T18:08:54;-0.60;99.90
57829;DHT22;43657;52.698;6.314;2022-12-18T18:11:21;-0.60;99.90
57829;DHT22;43657;52.698;6.314;2022-12-18T18:14:15;-0.60;99.90
57829;DHT22;43657;52.698;6.314;2022-12-18T18:16:43;-0.60;99.90